sensor_id;sensor_type;location;lat;lon;timestamp;pressure;altitude;pressure_sealevel;temperature;humidity
70730;BME280;58315;53.336;55.932;2023-04-28T00:02:16;99526.75;;;14.22;45.42
70730;BME280;58315;53.336;55.932;2023-04-28T00:04:43;99534.56;;;14.24;45.24
70730;BME280;58315;53.336;55.932;2023-04-28T00:07:09;99524.38;;;14.11;45.59
70730;BME280;58315;53.336;55.932;2023-04-28T00:09:35;99542.00;;;14.12;45.98
70730;BME280;58315;53.336;55.932;2023-04-28T00:12:01;99539.34;;;14.04;46.08
70730;BME280;58315;53.336;55.932;2023-04-28T00:14:28;99534.16;;;13.94;46.44
70730;BME280;58315;53.336;55.932;2023-04-28T00:16:54;99535.16;;;13.93;46.18
70730;BME280;58315;53.336;55.932;2023-04-28T00:19:22;99530.13;;;13.82;46.58
70730;BME280;58315;53.336;55.932;2023-04-28T00:21:48;99527.78;;;13.79;46.77
70730;BME280;58315;53.336;55.932;2023-04-28T00:24:14;99536.22;;;13.74;46.65
70730;BME280;58315;53.336;55.932;2023-04-28T00:26:40;99535.19;;;13.67;47.00
70730;BME280;58315;53.336;55.932;2023-04-28T00:29:06;99532.06;;;13.64;46.81
70730;BME280;58315;53.336;55.932;2023-04-28T00:31:32;99527.56;;;13.64;46.97
70730;BME280;58315;53.336;55.932;2023-04-28T00:34:00;99526.75;;;13.64;46.71
70730;BME280;58315;53.336;55.932;2023-04-28T00:36:26;99532.72;;;13.66;46.79
70730;BME280;58315;53.336;55.932;2023-04-28T00:38:57;99531.38;;;13.62;46.70
70730;BME280;58315;53.336;55.932;2023-04-28T00:41:24;99530.03;;;13.58;46.76
70730;BME280;58315;53.336;55.932;2023-04-28T00:43:50;99533.00;;;13.55;46.59
70730;BME280;58315;53.336;55.932;2023-04-28T00:46:29;99535.47;;;13.56;47.29
70730;BME280;58315;53.336;55.932;2023-04-28T00:48:57;99540.91;;;13.46;46.86
70730;BME280;58315;53.336;55.932;2023-04-28T00:51:23;99537.47;;;13.54;46.73
70730;BME280;58315;53.336;55.932;2023-04-28T00:53:50;99533.16;;;13.53;46.98
70730;BME280;58315;53.336;55.932;2023-04-28T00:56:16;99532.06;;;13.64;46.91
70730;BME280;58315;53.336;55.932;2023-04-28T00:58:42;99541.31;;;13.60;46.90
70730;BME280;58315;53.336;55.932;2023-04-28T01:01:09;99540.66;;;13.66;46.79
70730;BME280;58315;53.336;55.932;2023-04-28T01:03:37;99539.03;;;13.65;46.83
70730;BME280;58315;53.336;55.932;2023-04-28T01:06:04;99541.81;;;13.63;46.89
70730;BME280;58315;53.336;55.932;2023-04-28T01:08:32;99542.97;;;13.61;47.05
70730;BME280;58315;53.336;55.932;2023-04-28T01:11:00;99540.47;;;13.59;47.44
70730;BME280;58315;53.336;55.932;2023-04-28T01:13:45;99535.81;;;13.53;47.18
70730;BME280;58315;53.336;55.932;2023-04-28T01:16:12;99545.97;;;13.66;46.84
70730;BME280;58315;53.336;55.932;2023-04-28T01:18:41;99548.03;;;13.80;47.16
70730;BME280;58315;53.336;55.932;2023-04-28T01:21:11;99552.00;;;13.76;47.09
70730;BME280;58315;53.336;55.932;2023-04-28T01:23:37;99551.00;;;13.77;47.06
70730;BME280;58315;53.336;55.932;2023-04-28T01:26:03;99550.38;;;13.83;46.82
70730;BME280;58315;53.336;55.932;2023-04-28T01:28:30;99545.69;;;13.77;46.95
70730;BME280;58315;53.336;55.932;2023-04-28T01:30:57;99551.88;;;13.86;46.72
70730;BME280;58315;53.336;55.932;2023-04-28T01:33:23;99538.13;;;13.90;46.91
70730;BME280;58315;53.336;55.932;2023-04-28T01:35:49;99548.09;;;13.96;46.67
70730;BME280;58315;53.336;55.932;2023-04-28T01:38:16;99558.72;;;13.96;46.61
70730;BME280;58315;53.336;55.932;2023-04-28T01:40:43;99555.28;;;14.04;46.44
70730;BME280;58315;53.336;55.932;2023-04-28T01:43:10;99557.13;;;14.12;46.37
70730;BME280;58315;53.336;55.932;2023-04-28T01:45:36;99559.78;;;14.20;46.23
70730;BME280;58315;53.336;55.932;2023-04-28T01:48:02;99556.13;;;14.21;46.13
70730;BME280;58315;53.336;55.932;2023-04-28T01:50:28;99560.78;;;14.19;45.80
70730;BME280;58315;53.336;55.932;2023-04-28T01:52:55;99566.63;;;14.22;46.10
70730;BME280;58315;53.336;55.932;2023-04-28T01:55:21;99574.09;;;14.35;46.00
70730;BME280;58315;53.336;55.932;2023-04-28T01:57:48;99575.94;;;14.35;46.04
70730;BME280;58315;53.336;55.932;2023-04-28T02:00:15;99575.31;;;14.41;46.16
70730;BME280;58315;53.336;55.932;2023-04-28T02:02:48;99584.59;;;14.45;45.79
70730;BME280;58315;53.336;55.932;2023-04-28T02:05:14;99585.75;;;14.42;46.12
70730;BME280;58315;53.336;55.932;2023-04-28T02:07:41;99584.59;;;14.45;46.00
70730;BME280;58315;53.336;55.932;2023-04-28T02:10:07;99579.28;;;14.45;45.88
70730;BME280;58315;53.336;55.932;2023-04-28T02:12:34;99581.41;;;14.33;46.00
70730;BME280;58315;53.336;55.932;2023-04-28T02:15:01;99588.41;;;14.42;46.06
70730;BME280;58315;53.336;55.932;2023-04-28T02:17:31;99597.44;;;14.58;45.96
70730;BME280;58315;53.336;55.932;2023-04-28T02:19:57;99601.25;;;14.55;45.92
70730;BME280;58315;53.336;55.932;2023-04-28T02:22:23;99602.13;;;14.64;45.83
70730;BME280;58315;53.336;55.932;2023-04-28T02:24:50;99602.28;;;14.79;45.60
70730;BME280;58315;53.336;55.932;2023-04-28T02:27:16;99599.81;;;14.85;45.56
70730;BME280;58315;53.336;55.932;2023-04-28T02:29:43;99604.13;;;14.94;45.46
70730;BME280;58315;53.336;55.932;2023-04-28T02:32:09;99602.47;;;15.02;45.22
70730;BME280;58315;53.336;55.932;2023-04-28T02:34:35;99610.13;;;14.97;45.58
70730;BME280;58315;53.336;55.932;2023-04-28T02:37:01;99613.59;;;15.05;45.64
70730;BME280;58315;53.336;55.932;2023-04-28T02:39:27;99611.59;;;15.24;45.21
70730;BME280;58315;53.336;55.932;2023-04-28T02:41:56;99616.91;;;15.40;44.98
70730;BME280;58315;53.336;55.932;2023-04-28T02:44:23;99615.41;;;15.46;44.91
70730;BME280;58315;53.336;55.932;2023-04-28T02:46:49;99618.88;;;15.62;44.70
70730;BME280;58315;53.336;55.932;2023-04-28T02:49:15;99621.34;;;15.72;44.76
70730;BME280;58315;53.336;55.932;2023-04-28T02:51:42;99629.84;;;15.84;44.57
70730;BME280;58315;53.336;55.932;2023-04-28T02:54:12;99617.94;;;16.03;44.64
70730;BME280;58315;53.336;55.932;2023-04-28T02:56:38;99622.22;;;16.20;44.30
70730;BME280;58315;53.336;55.932;2023-04-28T02:59:06;99622.78;;;16.38;43.82
70730;BME280;58315;53.336;55.932;2023-04-28T03:01:32;99623.97;;;16.59;43.63
70730;BME280;58315;53.336;55.932;2023-04-28T03:03:58;99624.94;;;16.66;43.58
70730;BME280;58315;53.336;55.932;2023-04-28T03:06:24;99628.91;;;16.78;43.11
70730;BME280;58315;53.336;55.932;2023-04-28T03:08:51;99621.78;;;16.94;43.27
70730;BME280;58315;53.336;55.932;2023-04-28T03:11:17;99627.41;;;16.99;43.01
70730;BME280;58315;53.336;55.932;2023-04-28T03:13:43;99627.28;;;17.15;42.84
70730;BME280;58315;53.336;55.932;2023-04-28T03:16:09;99619.69;;;17.27;42.56
70730;BME280;58315;53.336;55.932;2023-04-28T03:18:35;99630.84;;;17.45;42.29
70730;BME280;58315;53.336;55.932;2023-04-28T03:21:02;99622.88;;;17.60;41.94
70730;BME280;58315;53.336;55.932;2023-04-28T03:23:28;99626.97;;;17.86;42.25
70730;BME280;58315;53.336;55.932;2023-04-28T03:25:55;99632.41;;;18.94;41.55
70730;BME280;58315;53.336;55.932;2023-04-28T03:28:23;99635.56;;;20.71;39.76
70730;BME280;58315;53.336;55.932;2023-04-28T03:30:49;99635.28;;;22.26;38.09
70730;BME280;58315;53.336;55.932;2023-04-28T03:33:16;99642.38;;;23.78;35.55
70730;BME280;58315;53.336;55.932;2023-04-28T03:35:42;99630.28;;;25.15;33.66
70730;BME280;58315;53.336;55.932;2023-04-28T03:38:08;99627.66;;;26.26;33.17
70730;BME280;58315;53.336;55.932;2023-04-28T03:40:35;99628.19;;;27.25;30.80
70730;BME280;58315;53.336;55.932;2023-04-28T03:43:11;99630.91;;;27.98;29.32
70730;BME280;58315;53.336;55.932;2023-04-28T03:45:45;99639.84;;;28.91;29.06
70730;BME280;58315;53.336;55.932;2023-04-28T03:48:11;99644.38;;;29.72;27.52
70730;BME280;58315;53.336;55.932;2023-04-28T03:50:37;99638.72;;;30.36;27.51
70730;BME280;58315;53.336;55.932;2023-04-28T03:53:06;99643.22;;;30.88;25.25
70730;BME280;58315;53.336;55.932;2023-04-28T03:55:32;99638.09;;;31.43;24.63
70730;BME280;58315;53.336;55.932;2023-04-28T03:57:58;99643.78;;;31.92;25.15
70730;BME280;58315;53.336;55.932;2023-04-28T04:00:24;99639.19;;;32.42;24.11
70730;BME280;58315;53.336;55.932;2023-04-28T04:02:52;99634.03;;;32.85;23.64
70730;BME280;58315;53.336;55.932;2023-04-28T04:05:19;99645.63;;;33.11;22.87
70730;BME280;58315;53.336;55.932;2023-04-28T04:07:46;99645.22;;;32.89;22.98
70730;BME280;58315;53.336;55.932;2023-04-28T04:10:12;99644.03;;;33.05;22.05
70730;BME280;58315;53.336;55.932;2023-04-28T04:12:41;99645.84;;;33.54;22.38
70730;BME280;58315;53.336;55.932;2023-04-28T04:15:07;99647.00;;;34.01;21.65
70730;BME280;58315;53.336;55.932;2023-04-28T04:17:34;99647.75;;;34.07;20.73
70730;BME280;58315;53.336;55.932;2023-04-28T04:20:00;99653.16;;;34.36;21.54
70730;BME280;58315;53.336;55.932;2023-04-28T04:22:26;99644.38;;;34.77;21.15
70730;BME280;58315;53.336;55.932;2023-04-28T04:24:52;99644.28;;;35.20;19.79
70730;BME280;58315;53.336;55.932;2023-04-28T04:27:18;99655.19;;;34.87;19.58
70730;BME280;58315;53.336;55.932;2023-04-28T04:29:44;99643.50;;;35.00;19.89
70730;BME280;58315;53.336;55.932;2023-04-28T04:32:12;99642.06;;;35.55;19.93
70730;BME280;58315;53.336;55.932;2023-04-28T04:34:39;99649.00;;;35.93;19.85
70730;BME280;58315;53.336;55.932;2023-04-28T04:37:07;99647.84;;;36.13;19.11
70730;BME280;58315;53.336;55.932;2023-04-28T04:39:38;99646.38;;;36.30;18.46
70730;BME280;58315;53.336;55.932;2023-04-28T04:42:04;99652.31;;;36.09;18.85
70730;BME280;58315;53.336;55.932;2023-04-28T04:44:51;99649.34;;;36.33;19.23
70730;BME280;58315;53.336;55.932;2023-04-28T04:47:25;99649.41;;;36.92;19.08
70730;BME280;58315;53.336;55.932;2023-04-28T04:49:52;99654.44;;;37.35;17.85
70730;BME280;58315;53.336;55.932;2023-04-28T04:52:18;99659.50;;;37.41;17.94
70730;BME280;58315;53.336;55.932;2023-04-28T04:54:45;99655.59;;;37.65;17.59
70730;BME280;58315;53.336;55.932;2023-04-28T04:57:12;99660.00;;;38.06;17.30
70730;BME280;58315;53.336;55.932;2023-04-28T05:00:08;99661.00;;;38.10;16.83
70730;BME280;58315;53.336;55.932;2023-04-28T05:02:37;99660.56;;;38.25;17.11
70730;BME280;58315;53.336;55.932;2023-04-28T05:05:05;99658.75;;;38.21;16.55
70730;BME280;58315;53.336;55.932;2023-04-28T05:07:32;99653.97;;;38.44;16.40
70730;BME280;58315;53.336;55.932;2023-04-28T05:09:58;99658.78;;;38.29;16.89
70730;BME280;58315;53.336;55.932;2023-04-28T05:12:24;99649.41;;;38.39;16.85
70730;BME280;58315;53.336;55.932;2023-04-28T05:14:50;99656.25;;;38.68;16.63
70730;BME280;58315;53.336;55.932;2023-04-28T05:17:21;99651.13;;;38.83;16.31
70730;BME280;58315;53.336;55.932;2023-04-28T05:19:47;99649.09;;;38.49;16.45
70730;BME280;58315;53.336;55.932;2023-04-28T05:22:14;99649.59;;;39.12;16.04
70730;BME280;58315;53.336;55.932;2023-04-28T05:24:40;99652.81;;;39.49;16.08
70730;BME280;58315;53.336;55.932;2023-04-28T05:27:06;99645.88;;;38.91;15.46
70730;BME280;58315;53.336;55.932;2023-04-28T05:29:33;99649.75;;;38.72;16.00
70730;BME280;58315;53.336;55.932;2023-04-28T05:31:59;99655.78;;;38.74;15.74
70730;BME280;58315;53.336;55.932;2023-04-28T05:34:26;99655.66;;;39.05;15.20
70730;BME280;58315;53.336;55.932;2023-04-28T05:36:52;99658.09;;;38.90;15.72
70730;BME280;58315;53.336;55.932;2023-04-28T05:39:22;99665.19;;;39.43;15.63
70730;BME280;58315;53.336;55.932;2023-04-28T05:41:48;99652.22;;;39.17;15.13
70730;BME280;58315;53.336;55.932;2023-04-28T05:44:14;99658.88;;;38.73;16.02
70730;BME280;58315;53.336;55.932;2023-04-28T05:46:40;99651.25;;;39.04;15.38
70730;BME280;58315;53.336;55.932;2023-04-28T05:49:08;99655.00;;;39.82;15.74
70730;BME280;58315;53.336;55.932;2023-04-28T05:51:36;99648.66;;;40.11;15.07
70730;BME280;58315;53.336;55.932;2023-04-28T05:54:03;99646.69;;;39.90;15.09
70730;BME280;58315;53.336;55.932;2023-04-28T05:56:33;99647.25;;;40.05;14.77
70730;BME280;58315;53.336;55.932;2023-04-28T05:59:00;99650.06;;;39.96;14.98
70730;BME280;58315;53.336;55.932;2023-04-28T06:01:30;99647.03;;;39.80;14.68
70730;BME280;58315;53.336;55.932;2023-04-28T06:03:57;99648.63;;;39.34;15.39
70730;BME280;58315;53.336;55.932;2023-04-28T06:06:24;99646.88;;;38.86;15.73
70730;BME280;58315;53.336;55.932;2023-04-28T06:08:51;99637.59;;;38.73;15.70
70730;BME280;58315;53.336;55.932;2023-04-28T06:11:17;99643.53;;;37.83;15.80
70730;BME280;58315;53.336;55.932;2023-04-28T06:13:48;99645.88;;;36.78;16.52
70730;BME280;58315;53.336;55.932;2023-04-28T06:16:15;99637.69;;;34.45;17.23
70730;BME280;58315;53.336;55.932;2023-04-28T06:18:42;99641.03;;;33.02;18.89
70730;BME280;58315;53.336;55.932;2023-04-28T06:21:08;99629.94;;;32.28;19.18
70730;BME280;58315;53.336;55.932;2023-04-28T06:23:35;99632.63;;;31.48;20.02
70730;BME280;58315;53.336;55.932;2023-04-28T06:26:02;99641.34;;;31.09;20.29
70730;BME280;58315;53.336;55.932;2023-04-28T06:28:28;99636.63;;;30.69;20.62
70730;BME280;58315;53.336;55.932;2023-04-28T06:30:54;99634.66;;;30.44;20.84
70730;BME280;58315;53.336;55.932;2023-04-28T06:33:20;99640.59;;;30.31;21.82
70730;BME280;58315;53.336;55.932;2023-04-28T06:35:46;99633.81;;;30.33;21.10
70730;BME280;58315;53.336;55.932;2023-04-28T06:38:14;99628.78;;;30.10;21.78
70730;BME280;58315;53.336;55.932;2023-04-28T06:40:40;99629.50;;;29.90;21.44
70730;BME280;58315;53.336;55.932;2023-04-28T06:43:07;99637.00;;;29.67;21.66
70730;BME280;58315;53.336;55.932;2023-04-28T06:45:41;99637.97;;;28.92;21.90
70730;BME280;58315;53.336;55.932;2023-04-28T06:48:07;99629.16;;;28.52;23.07
70730;BME280;58315;53.336;55.932;2023-04-28T06:50:37;99618.63;;;28.61;22.70
70730;BME280;58315;53.336;55.932;2023-04-28T06:53:05;99619.47;;;28.40;22.74
70730;BME280;58315;53.336;55.932;2023-04-28T06:55:33;99617.69;;;28.28;22.77
70730;BME280;58315;53.336;55.932;2023-04-28T06:57:59;99619.59;;;28.06;23.00
70730;BME280;58315;53.336;55.932;2023-04-28T07:00:26;99618.41;;;28.41;23.17
70730;BME280;58315;53.336;55.932;2023-04-28T07:02:52;99620.25;;;28.62;22.87
70730;BME280;58315;53.336;55.932;2023-04-28T07:05:18;99625.25;;;28.26;22.69
70730;BME280;58315;53.336;55.932;2023-04-28T07:07:44;99612.28;;;28.06;23.01
70730;BME280;58315;53.336;55.932;2023-04-28T07:10:10;99616.31;;;28.26;23.27
70730;BME280;58315;53.336;55.932;2023-04-28T07:12:36;99606.88;;;28.55;23.14
70730;BME280;58315;53.336;55.932;2023-04-28T07:15:03;99614.38;;;28.43;22.86
70730;BME280;58315;53.336;55.932;2023-04-28T07:17:35;99606.63;;;28.57;22.72
70730;BME280;58315;53.336;55.932;2023-04-28T07:20:01;99601.75;;;28.37;22.83
70730;BME280;58315;53.336;55.932;2023-04-28T07:22:29;99601.41;;;28.50;22.76
70730;BME280;58315;53.336;55.932;2023-04-28T07:24:55;99601.41;;;28.50;23.14
70730;BME280;58315;53.336;55.932;2023-04-28T07:27:22;99601.41;;;28.50;22.69
70730;BME280;58315;53.336;55.932;2023-04-28T07:29:48;99584.63;;;28.36;22.98
70730;BME280;58315;53.336;55.932;2023-04-28T07:32:14;99579.88;;;28.00;23.28
70730;BME280;58315;53.336;55.932;2023-04-28T07:34:40;99581.63;;;28.11;23.58
70730;BME280;58315;53.336;55.932;2023-04-28T07:37:06;99578.34;;;28.31;23.17
70730;BME280;58315;53.336;55.932;2023-04-28T07:39:33;99581.06;;;28.31;23.16
70730;BME280;58315;53.336;55.932;2023-04-28T07:42:00;99588.44;;;28.35;23.18
70730;BME280;58315;53.336;55.932;2023-04-28T07:44:28;99587.97;;;28.39;23.36
70730;BME280;58315;53.336;55.932;2023-04-28T07:46:55;99570.84;;;28.65;22.96
70730;BME280;58315;53.336;55.932;2023-04-28T07:49:21;99569.44;;;28.90;22.36
70730;BME280;58315;53.336;55.932;2023-04-28T07:51:47;99566.84;;;29.00;21.65
70730;BME280;58315;53.336;55.932;2023-04-28T07:54:14;99572.94;;;28.85;21.62
70730;BME280;58315;53.336;55.932;2023-04-28T07:56:40;99576.03;;;28.99;21.94
70730;BME280;58315;53.336;55.932;2023-04-28T07:59:06;99568.56;;;28.84;21.43
70730;BME280;58315;53.336;55.932;2023-04-28T08:01:32;99561.56;;;28.61;21.55
70730;BME280;58315;53.336;55.932;2023-04-28T08:03:59;99578.03;;;28.49;21.39
70730;BME280;58315;53.336;55.932;2023-04-28T08:06:24;99572.59;;;28.49;20.92
70730;BME280;58315;53.336;55.932;2023-04-28T08:08:50;99570.00;;;28.65;20.78
70730;BME280;58315;53.336;55.932;2023-04-28T08:11:16;99560.56;;;28.72;20.63
70730;BME280;58315;53.336;55.932;2023-04-28T08:13:43;99556.22;;;28.71;20.82
70730;BME280;58315;53.336;55.932;2023-04-28T08:16:09;99556.44;;;28.97;21.27
70730;BME280;58315;53.336;55.932;2023-04-28T08:18:35;99562.25;;;29.11;20.67
70730;BME280;58315;53.336;55.932;2023-04-28T08:21:01;99553.13;;;28.90;20.47
70730;BME280;58315;53.336;55.932;2023-04-28T08:23:27;99558.19;;;29.08;20.57
70730;BME280;58315;53.336;55.932;2023-04-28T08:25:55;99562.38;;;28.94;20.51
70730;BME280;58315;53.336;55.932;2023-04-28T08:28:21;99555.75;;;28.79;20.21
70730;BME280;58315;53.336;55.932;2023-04-28T08:30:48;99555.31;;;28.93;20.23
70730;BME280;58315;53.336;55.932;2023-04-28T08:33:14;99548.53;;;28.95;20.65
70730;BME280;58315;53.336;55.932;2023-04-28T08:35:39;99559.91;;;28.92;20.34
70730;BME280;58315;53.336;55.932;2023-04-28T08:38:06;99562.50;;;28.77;20.25
70730;BME280;58315;53.336;55.932;2023-04-28T08:40:32;99565.34;;;28.92;20.87
70730;BME280;58315;53.336;55.932;2023-04-28T08:42:59;99560.16;;;28.86;20.06
70730;BME280;58315;53.336;55.932;2023-04-28T08:45:27;99557.63;;;29.06;19.92
70730;BME280;58315;53.336;55.932;2023-04-28T08:47:55;99560.38;;;29.11;19.64
70730;BME280;58315;53.336;55.932;2023-04-28T08:50:22;99556.13;;;28.93;19.49
70730;BME280;58315;53.336;55.932;2023-04-28T08:52:51;99559.09;;;28.92;19.23
70730;BME280;58315;53.336;55.932;2023-04-28T08:55:17;99551.38;;;28.78;19.72
70730;BME280;58315;53.336;55.932;2023-04-28T08:57:45;99552.03;;;28.91;20.12
70730;BME280;58315;53.336;55.932;2023-04-28T09:00:14;99554.28;;;28.99;20.56
70730;BME280;58315;53.336;55.932;2023-04-28T09:02:40;99553.84;;;29.07;20.80
70730;BME280;58315;53.336;55.932;2023-04-28T09:05:10;99561.88;;;28.97;20.76
70730;BME280;58315;53.336;55.932;2023-04-28T09:07:37;99564.13;;;29.05;21.08
70730;BME280;58315;53.336;55.932;2023-04-28T09:10:23;99567.53;;;29.22;21.03
70730;BME280;58315;53.336;55.932;2023-04-28T09:12:51;99554.66;;;29.07;20.97
70730;BME280;58315;53.336;55.932;2023-04-28T09:17:51;99557.09;;;29.09;20.97
70730;BME280;58315;53.336;55.932;2023-04-28T09:20:28;99557.41;;;29.18;20.48
70730;BME280;58315;53.336;55.932;2023-04-28T09:23:20;99559.16;;;29.29;20.49
70730;BME280;58315;53.336;55.932;2023-04-28T09:26:04;99548.66;;;29.48;20.08
70730;BME280;58315;53.336;55.932;2023-04-28T09:28:33;99547.19;;;29.35;19.95
70730;BME280;58315;53.336;55.932;2023-04-28T09:31:00;99561.00;;;29.23;20.31
70730;BME280;58315;53.336;55.932;2023-04-28T09:33:26;99556.13;;;28.93;20.82
70730;BME280;58315;53.336;55.932;2023-04-28T09:35:54;99560.31;;;29.01;20.75
70730;BME280;58315;53.336;55.932;2023-04-28T09:38:21;99551.25;;;28.95;20.39
70730;BME280;58315;53.336;55.932;2023-04-28T09:41:08;99561.22;;;28.84;20.67
70730;BME280;58315;53.336;55.932;2023-04-28T09:43:34;99557.50;;;28.64;20.18
70730;BME280;58315;53.336;55.932;2023-04-28T09:46:02;99557.91;;;28.50;19.70
70730;BME280;58315;53.336;55.932;2023-04-28T09:48:34;99547.97;;;28.61;20.12
70730;BME280;58315;53.336;55.932;2023-04-28T09:51:05;99542.63;;;28.71;20.51
70730;BME280;58315;53.336;55.932;2023-04-28T09:53:33;99539.88;;;28.39;20.57
70730;BME280;58315;53.336;55.932;2023-04-28T09:56:02;99547.88;;;28.51;20.93
70730;BME280;58315;53.336;55.932;2023-04-28T09:58:30;99540.84;;;28.55;20.63
70730;BME280;58315;53.336;55.932;2023-04-28T10:00:59;99543.09;;;28.63;20.77
70730;BME280;58315;53.336;55.932;2023-04-28T10:03:27;99536.44;;;28.81;20.90
70730;BME280;58315;53.336;55.932;2023-04-28T10:05:55;99539.91;;;28.71;20.19
70730;BME280;58315;53.336;55.932;2023-04-28T10:08:23;99540.09;;;28.59;20.26
70730;BME280;58315;53.336;55.932;2023-04-28T10:10:51;99539.44;;;28.79;20.56
70730;BME280;58315;53.336;55.932;2023-04-28T10:13:21;99541.06;;;28.80;20.21
70730;BME280;58315;53.336;55.932;2023-04-28T10:15:48;99543.78;;;28.80;20.44
70730;BME280;58315;53.336;55.932;2023-04-28T10:18:15;99541.94;;;28.86;20.31
70730;BME280;58315;53.336;55.932;2023-04-28T10:20:44;99544.34;;;28.82;19.90
70730;BME280;58315;53.336;55.932;2023-04-28T10:23:48;99543.34;;;28.62;19.80
70730;BME280;58315;53.336;55.932;2023-04-28T10:26:18;99535.56;;;28.43;20.16
70730;BME280;58315;53.336;55.932;2023-04-28T10:28:48;99543.06;;;28.36;20.19
70730;BME280;58315;53.336;55.932;2023-04-28T10:31:18;99547.09;;;28.33;20.01
70730;BME280;58315;53.336;55.932;2023-04-28T10:33:48;99548.22;;;28.10;20.38
70730;BME280;58315;53.336;55.932;2023-04-28T10:36:50;99546.91;;;28.13;20.38
70730;BME280;58315;53.336;55.932;2023-04-28T10:39:19;99540.97;;;28.16;20.49
70730;BME280;58315;53.336;55.932;2023-04-28T10:41:45;99538.34;;;28.26;20.61
70730;BME280;58315;53.336;55.932;2023-04-28T10:47:07;99530.59;;;28.13;20.78
70730;BME280;58315;53.336;55.932;2023-04-28T10:55:30;99519.97;;;28.60;20.58
70730;BME280;58315;53.336;55.932;2023-04-28T11:00:54;99534.28;;;28.29;21.02
70730;BME280;58315;53.336;55.932;2023-04-28T11:06:31;99535.25;;;28.40;21.14
70730;BME280;58315;53.336;55.932;2023-04-28T11:09:02;99526.97;;;28.29;21.14
70730;BME280;58315;53.336;55.932;2023-04-28T11:11:31;99520.16;;;28.27;21.50
70730;BME280;58315;53.336;55.932;2023-04-28T11:16:55;99526.13;;;28.51;21.52
70730;BME280;58315;53.336;55.932;2023-04-28T11:19:26;99519.22;;;28.38;21.85
70730;BME280;58315;53.336;55.932;2023-04-28T11:21:55;99519.94;;;28.33;21.83
70730;BME280;58315;53.336;55.932;2023-04-28T11:24:22;99521.88;;;28.11;21.80
70730;BME280;58315;53.336;55.932;2023-04-28T11:26:54;99519.13;;;28.06;21.69
70730;BME280;58315;53.336;55.932;2023-04-28T11:29:37;99514.44;;;28.23;21.87
70730;BME280;58315;53.336;55.932;2023-04-28T11:32:06;99513.53;;;28.40;21.68
70730;BME280;58315;53.336;55.932;2023-04-28T11:34:33;99509.91;;;28.34;21.85
70730;BME280;58315;53.336;55.932;2023-04-28T11:37:00;99503.31;;;28.30;21.64
70730;BME280;58315;53.336;55.932;2023-04-28T11:39:31;99501.84;;;28.39;21.43
70730;BME280;58315;53.336;55.932;2023-04-28T11:41:59;99507.25;;;28.39;21.66
70730;BME280;58315;53.336;55.932;2023-04-28T11:44:28;99508.38;;;28.43;21.89
70730;BME280;58315;53.336;55.932;2023-04-28T11:46:58;99494.03;;;28.48;21.64
70730;BME280;58315;53.336;55.932;2023-04-28T11:49:27;99504.84;;;28.43;21.21
70730;BME280;58315;53.336;55.932;2023-04-28T11:51:57;99499.22;;;28.49;21.29
70730;BME280;58315;53.336;55.932;2023-04-28T11:54:28;99502.25;;;28.53;20.87
70730;BME280;58315;53.336;55.932;2023-04-28T11:56:56;99505.00;;;28.58;20.80
70730;BME280;58315;53.336;55.932;2023-04-28T11:59:24;99494.13;;;28.58;19.96
70730;BME280;58315;53.336;55.932;2023-04-28T12:04:26;99499.69;;;28.73;20.03
70730;BME280;58315;53.336;55.932;2023-04-28T12:09:27;99496.00;;;28.52;20.04
70730;BME280;58315;53.336;55.932;2023-04-28T12:12:03;99497.91;;;28.57;19.94
70730;BME280;58315;53.336;55.932;2023-04-28T12:14:31;99490.38;;;28.64;20.01
70730;BME280;58315;53.336;55.932;2023-04-28T12:17:00;99497.03;;;28.83;19.89
70730;BME280;58315;53.336;55.932;2023-04-28T12:19:26;99493.03;;;28.59;19.95
70730;BME280;58315;53.336;55.932;2023-04-28T12:22:05;99500.13;;;28.60;19.75
70730;BME280;58315;53.336;55.932;2023-04-28T12:24:32;99495.06;;;28.42;19.84
70730;BME280;58315;53.336;55.932;2023-04-28T12:29:41;99493.97;;;28.43;19.62
70730;BME280;58315;53.336;55.932;2023-04-28T12:32:09;99490.97;;;28.39;19.92
70730;BME280;58315;53.336;55.932;2023-04-28T12:34:36;99494.31;;;28.24;20.13
70730;BME280;58315;53.336;55.932;2023-04-28T12:37:03;99494.94;;;28.31;20.17
70730;BME280;58315;53.336;55.932;2023-04-28T12:39:34;99499.25;;;28.27;20.20
70730;BME280;58315;53.336;55.932;2023-04-28T12:42:02;99499.09;;;28.12;19.93
70730;BME280;58315;53.336;55.932;2023-04-28T12:44:35;99490.06;;;28.06;20.17
70730;BME280;58315;53.336;55.932;2023-04-28T12:47:03;99504.47;;;28.07;20.03
70730;BME280;58315;53.336;55.932;2023-04-28T12:49:30;99496.38;;;28.12;20.13
70730;BME280;58315;53.336;55.932;2023-04-28T12:51:56;99502.81;;;28.06;19.95
70730;BME280;58315;53.336;55.932;2023-04-28T12:54:22;99487.41;;;27.89;19.85
70730;BME280;58315;53.336;55.932;2023-04-28T12:56:48;99489.47;;;28.04;20.05
70730;BME280;58315;53.336;55.932;2023-04-28T12:59:15;99485.53;;;28.12;19.88
70730;BME280;58315;53.336;55.932;2023-04-28T13:01:41;99479.63;;;28.20;19.71
70730;BME280;58315;53.336;55.932;2023-04-28T13:04:08;99488.81;;;28.19;20.20
70730;BME280;58315;53.336;55.932;2023-04-28T13:06:34;99494.09;;;28.04;20.30
70730;BME280;58315;53.336;55.932;2023-04-28T13:09:01;99492.47;;;28.03;20.91
70730;BME280;58315;53.336;55.932;2023-04-28T13:11:28;99497.41;;;28.06;20.89
70730;BME280;58315;53.336;55.932;2023-04-28T13:13:54;99497.94;;;28.08;20.84
70730;BME280;58315;53.336;55.932;2023-04-28T13:16:22;99490.94;;;28.12;20.54
70730;BME280;58315;53.336;55.932;2023-04-28T13:18:50;99502.81;;;28.06;20.64
70730;BME280;58315;53.336;55.932;2023-04-28T13:21:17;99497.69;;;28.09;20.45
70730;BME280;58315;53.336;55.932;2023-04-28T13:23:43;99503.94;;;28.10;20.75